Time;durP1;ratioP1;P1;durP2;ratioP2;P2;SDS_P1;SDS_P2;PMS_P1;PMS_P2;Temp;Humidity;BMP_temperature;BMP_pressure;BME280_temperature;BME280_humidity;BME280_pressure;Samples;Min_cycle;Max_cycle;Signal;HPM_P1;HPM_P2
2022/07/27 00:00:52;;;;;;;4.70;1.90;;;17.20;99.90;;;;;;7336776;19;111223;-77
2022/07/27 00:03:19;;;;;;;12.73;2.28;;;17.20;99.90;;;;;;7343275;19;109259;-77
2022/07/27 00:05:46;;;;;;;8.35;2.33;;;17.20;99.90;;;;;;7340914;19;111147;-78
2022/07/27 00:08:14;;;;;;;6.97;2.15;;;17.10;99.90;;;;;;7342032;19;110659;-79
2022/07/27 00:10:41;;;;;;;6.57;2.20;;;17.10;99.90;;;;;;7343780;19;111692;-77
2022/07/27 00:13:08;;;;;;;7.00;2.33;;;17.10;99.90;;;;;;7342225;19;110761;-80
2022/07/27 00:15:35;;;;;;;7.20;2.60;;;17.00;99.90;;;;;;7343845;19;110455;-81
2022/07/27 00:18:02;;;;;;;4.53;2.08;;;17.00;99.90;;;;;;7343266;19;110082;-80
2022/07/27 00:20:31;;;;;;;6.25;2.22;;;17.00;99.90;;;;;;7340106;19;111541;-81
2022/07/27 00:22:58;;;;;;;9.95;2.30;;;16.90;99.90;;;;;;7341593;19;110216;-80
2022/07/27 00:25:26;;;;;;;10.32;2.35;;;16.80;99.90;;;;;;7349089;19;111762;-80
2022/07/27 00:27:57;;;;;;;5.63;2.13;;;16.70;99.90;;;;;;7340506;19;109646;-81
2022/07/27 00:30:24;;;;;;;9.40;2.55;;;16.60;99.90;;;;;;7343263;19;109232;-81
2022/07/27 00:32:52;;;;;;;5.38;2.10;;;16.60;99.90;;;;;;7343207;19;111208;-78
2022/07/27 00:35:19;;;;;;;5.47;2.20;;;16.50;99.90;;;;;;7341411;19;109478;-78
2022/07/27 00:37:46;;;;;;;5.47;2.40;;;16.50;99.90;;;;;;7341705;19;109561;-78
2022/07/27 00:40:14;;;;;;;4.03;2.13;;;16.40;99.90;;;;;;7338973;19;112240;-77
2022/07/27 00:42:41;;;;;;;7.55;2.35;;;16.40;99.90;;;;;;7341193;19;110549;-78
2022/07/27 00:45:08;;;;;;;7.03;2.13;;;16.40;99.90;;;;;;7343224;19;110591;-78
2022/07/27 00:47:36;;;;;;;4.70;1.95;;;16.30;99.90;;;;;;7347191;19;111948;-78
2022/07/27 00:50:04;;;;;;;6.53;2.10;;;16.30;99.90;;;;;;7341224;19;111829;-78
2022/07/27 00:52:31;;;;;;;7.93;2.22;;;16.30;99.90;;;;;;7341389;19;110945;-77
2022/07/27 00:54:59;;;;;;;5.45;2.17;;;16.10;99.90;;;;;;7342134;19;109620;-77
2022/07/27 00:57:27;;;;;;;6.95;2.40;;;16.10;99.90;;;;;;7342572;19;109671;-77
2022/07/27 00:59:54;;;;;;;4.80;1.85;;;16.00;99.90;;;;;;7342183;19;111323;-78
2022/07/27 01:02:22;;;;;;;5.88;1.85;;;16.10;99.90;;;;;;7340551;19;110396;-78
2022/07/27 01:04:50;;;;;;;5.53;1.88;;;16.00;99.90;;;;;;7342257;19;110427;-77
2022/07/27 01:07:23;;;;;;;6.07;1.90;;;16.00;99.90;;;;;;7342675;19;111148;-77
2022/07/27 01:09:56;;;;;;;6.20;1.70;;;15.90;99.90;;;;;;7345372;19;109954;-77
2022/07/27 01:12:30;;;;;;;4.70;1.88;;;15.80;99.90;;;;;;7341647;19;110806;-77
2022/07/27 01:14:58;;;;;;;3.72;1.88;;;15.80;99.90;;;;;;7338461;19;110284;-77
2022/07/27 01:17:29;;;;;;;6.72;1.70;;;15.70;99.90;;;;;;7341228;19;110393;-77
2022/07/27 01:19:57;;;;;;;4.80;1.65;;;15.70;99.90;;;;;;7341145;19;111443;-77
2022/07/27 01:22:25;;;;;;;3.70;1.60;;;15.60;99.90;;;;;;7340506;19;110076;-77
2022/07/27 01:24:53;;;;;;;5.03;1.73;;;15.60;99.90;;;;;;7341166;19;111559;-77
2022/07/27 01:27:20;;;;;;;2.72;1.33;;;15.50;99.90;;;;;;7339651;19;110692;-77
2022/07/27 01:29:47;;;;;;;2.97;1.75;;;15.50;99.90;;;;;;7341195;19;110309;-77
2022/07/27 01:32:14;;;;;;;4.25;2.10;;;15.40;99.90;;;;;;7345825;19;111377;-77
2022/07/27 01:34:41;;;;;;;4.25;1.80;;;15.20;99.90;;;;;;7338141;19;110055;-77
2022/07/27 01:37:08;;;;;;;4.60;1.88;;;15.20;99.90;;;;;;7338356;19;110721;-76
2022/07/27 01:39:36;;;;;;;5.78;1.67;;;15.10;99.90;;;;;;7339665;19;111504;-77
2022/07/27 01:42:03;;;;;;;3.30;1.88;;;15.10;99.90;;;;;;7338903;19;109615;-77
2022/07/27 01:44:30;;;;;;;6.13;1.60;;;15.10;99.90;;;;;;7339762;19;110800;-76
2022/07/27 01:46:57;;;;;;;6.00;1.92;;;15.10;99.90;;;;;;7338612;19;110118;-76
2022/07/27 01:49:24;;;;;;;4.65;1.90;;;15.10;99.90;;;;;;7339315;19;110549;-77
2022/07/27 01:51:52;;;;;;;2.85;1.75;;;15.10;99.90;;;;;;7339070;19;110466;-77
2022/07/27 01:54:19;;;;;;;5.63;1.80;;;15.00;99.90;;;;;;7345381;19;111551;-76
2022/07/27 01:56:46;;;;;;;2.63;1.65;;;14.90;99.90;;;;;;7341440;19;110899;-76
2022/07/27 01:59:14;;;;;;;1.92;1.30;;;14.90;99.90;;;;;;7339673;19;111240;-76
2022/07/27 02:01:43;;;;;;;4.38;1.90;;;14.90;99.90;;;;;;7338747;19;110964;-76
2022/07/27 02:04:10;;;;;;;4.68;1.90;;;14.90;99.90;;;;;;7339172;19;110222;-76
2022/07/27 02:06:38;;;;;;;4.93;1.70;;;14.80;99.90;;;;;;7339100;19;110730;-76
2022/07/27 02:09:05;;;;;;;3.10;1.63;;;14.80;99.90;;;;;;7340258;19;110270;-76
2022/07/27 02:14:18;;;;;;;3.28;1.52;;;14.60;99.90;;;;;;7345167;19;110456;-76
2022/07/27 02:16:47;;;;;;;3.58;1.80;;;14.60;99.90;;;;;;7338990;19;110425;-76
2022/07/27 02:19:17;;;;;;;6.85;2.30;;;14.60;99.90;;;;;;7337373;19;113822;-76
2022/07/27 02:21:44;;;;;;;3.70;1.92;;;14.50;99.90;;;;;;7338158;19;110010;-76
2022/07/27 02:24:12;;;;;;;4.68;2.15;;;14.50;99.90;;;;;;7339660;19;110582;-76
2022/07/27 02:26:39;;;;;;;5.50;1.98;;;14.50;99.90;;;;;;7334949;19;111254;-76
2022/07/27 02:29:06;;;;;;;3.95;1.90;;;14.50;99.90;;;;;;7337822;19;109348;-75
2022/07/27 02:31:33;;;;;;;4.13;2.10;;;14.40;99.90;;;;;;7340242;19;109783;-75
2022/07/27 02:34:00;;;;;;;4.47;1.95;;;14.40;99.90;;;;;;7337131;19;110565;-76
2022/07/27 02:36:28;;;;;;;4.10;2.13;;;14.30;99.90;;;;;;7342999;19;109640;-75
2022/07/27 02:38:56;;;;;;;5.75;2.05;;;14.20;99.90;;;;;;7338333;19;114906;-75
2022/07/27 02:41:23;;;;;;;3.08;1.85;;;14.20;99.90;;;;;;7336070;19;109460;-75
2022/07/27 02:43:50;;;;;;;3.58;2.22;;;14.20;99.90;;;;;;7336138;19;109974;-75
2022/07/27 02:46:17;;;;;;;4.97;2.60;;;14.20;99.90;;;;;;7336350;19;110117;-75
2022/07/27 02:48:45;;;;;;;4.32;2.20;;;14.10;99.90;;;;;;7338453;19;109293;-75
2022/07/27 02:51:13;;;;;;;6.10;2.60;;;14.10;99.90;;;;;;7337688;19;113434;-75
2022/07/27 02:53:41;;;;;;;6.32;2.00;;;14.00;99.90;;;;;;7338169;19;111192;-75
2022/07/27 02:56:08;;;;;;;2.97;1.90;;;13.90;99.90;;;;;;7335930;19;110053;-75
2022/07/27 02:58:36;;;;;;;5.90;2.00;;;13.90;99.90;;;;;;7343980;19;110409;-75
2022/07/27 03:01:04;;;;;;;2.90;1.73;;;13.90;99.90;;;;;;7338061;19;109583;-75
2022/07/27 03:03:32;;;;;;;5.72;2.40;;;13.90;99.90;;;;;;7334142;19;110016;-74
2022/07/27 03:06:06;;;;;;;3.83;2.08;;;13.80;99.90;;;;;;7336334;19;110102;-74
2022/07/27 03:08:34;;;;;;;4.90;2.10;;;13.70;99.90;;;;;;7334769;19;110919;-74
2022/07/27 03:11:01;;;;;;;4.35;2.20;;;13.60;99.90;;;;;;7333995;19;110418;-74
2022/07/27 03:13:29;;;;;;;3.47;1.98;;;13.60;99.90;;;;;;7336776;19;111492;-74
2022/07/27 03:15:56;;;;;;;5.75;2.42;;;13.50;99.90;;;;;;7337796;19;109315;-74
2022/07/27 03:18:24;;;;;;;4.95;2.13;;;13.50;99.90;;;;;;7336849;19;111537;-74
2022/07/27 03:20:51;;;;;;;3.38;2.00;;;13.50;99.90;;;;;;7342698;19;111511;-74
2022/07/27 03:23:18;;;;;;;3.03;2.10;;;13.40;99.90;;;;;;7332895;19;110235;-74
2022/07/27 03:25:45;;;;;;;2.83;1.92;;;13.40;99.90;;;;;;7337016;19;112751;-74
2022/07/27 03:28:12;;;;;;;3.05;1.83;;;13.50;99.90;;;;;;7336835;19;110071;-74
2022/07/27 03:30:39;;;;;;;3.47;2.03;;;13.50;99.90;;;;;;7337325;19;110530;-74
2022/07/27 03:33:06;;;;;;;6.43;2.00;;;13.40;99.90;;;;;;7335071;19;111130;-74
2022/07/27 03:35:34;;;;;;;4.43;2.10;;;13.30;99.90;;;;;;7337859;19;109748;-74
2022/07/27 03:38:01;;;;;;;4.50;2.30;;;13.20;99.90;;;;;;7339677;19;111094;-74
2022/07/27 03:40:30;;;;;;;4.82;2.33;;;13.20;99.90;;;;;;7344426;19;111235;-74
2022/07/27 03:42:58;;;;;;;9.50;2.40;;;13.30;99.90;;;;;;7350105;19;109556;-74
2022/07/27 03:45:26;;;;;;;3.45;2.47;;;13.30;99.90;;;;;;7341603;19;114632;-74
2022/07/27 03:47:53;;;;;;;6.35;2.53;;;13.30;99.90;;;;;;7344199;19;109584;-74
2022/07/27 03:50:21;;;;;;;4.75;2.22;;;13.10;99.90;;;;;;7340993;19;109539;-74
2022/07/27 03:52:49;;;;;;;5.47;2.58;;;13.00;99.90;;;;;;7339507;19;110605;-73
2022/07/27 03:55:16;;;;;;;4.80;2.42;;;13.00;99.90;;;;;;7344164;19;109507;-73
2022/07/27 03:57:43;;;;;;;5.30;2.28;;;12.90;99.90;;;;;;7342822;19;110417;-74
2022/07/27 04:00:13;;;;;;;;;;;12.90;99.90;;;;;;7343381;19;111184;-74
2022/07/27 04:02:40;;;;;;;3.22;2.20;;;12.90;99.90;;;;;;7345665;19;109557;-74
2022/07/27 04:05:08;;;;;;;3.15;1.52;;;12.70;99.90;;;;;;7347072;19;111209;-74
2022/07/27 04:07:35;;;;;;;2.65;1.80;;;12.70;99.90;;;;;;7344643;19;110427;-74
2022/07/27 04:10:04;;;;;;;3.03;1.95;;;12.70;99.90;;;;;;7344421;19;110360;-74
2022/07/27 04:12:31;;;;;;;5.05;2.28;;;12.70;99.90;;;;;;7342905;19;111709;-74
2022/07/27 04:15:01;;;;;;;2.97;2.35;;;12.60;99.90;;;;;;7342779;19;109936;-74
2022/07/27 04:17:28;;;;;;;3.28;1.75;;;12.60;99.90;;;;;;7343855;19;109376;-74
2022/07/27 04:20:15;;;;;;;4.63;2.00;;;12.60;99.90;;;;;;7340380;19;111720;-74
2022/07/27 04:22:42;;;;;;;2.67;1.90;;;12.60;99.90;;;;;;7341940;19;110106;-74
2022/07/27 04:25:09;;;;;;;;;;;12.70;99.90;;;;;;7348428;19;109992;-74
2022/07/27 04:27:36;;;;;;;3.10;1.83;;;12.70;99.90;;;;;;7343190;19;109879;-74
2022/07/27 04:30:05;;;;;;;6.10;2.47;;;12.80;99.90;;;;;;7343254;19;109701;-74
2022/07/27 04:32:35;;;;;;;3.53;2.13;;;12.90;99.90;;;;;;7342906;19;110417;-74
2022/07/27 04:35:04;;;;;;;2.40;1.50;;;12.90;99.90;;;;;;7342434;19;109658;-74
2022/07/27 04:37:32;;;;;;;2.75;1.40;;;12.90;99.90;;;;;;7341743;19;110542;-74
2022/07/27 04:39:59;;;;;;;4.82;1.55;;;12.80;99.90;;;;;;7342894;19;111140;-74
2022/07/27 04:42:28;;;;;;;2.15;1.90;;;12.70;99.90;;;;;;7343056;19;111071;-74
2022/07/27 04:44:56;;;;;;;3.15;1.90;;;12.70;99.90;;;;;;7341321;19;110398;-73
2022/07/27 04:47:23;;;;;;;9.77;2.20;;;12.70;99.90;;;;;;7348779;19;111152;-73
2022/07/27 04:49:50;;;;;;;5.90;2.30;;;12.70;99.90;;;;;;7340466;19;110761;-73
2022/07/27 04:52:17;;;;;;;3.67;1.95;;;12.70;99.90;;;;;;7343625;19;111873;-74
2022/07/27 04:54:44;;;;;;;4.47;2.15;;;12.70;99.90;;;;;;7340789;19;110022;-73
2022/07/27 04:57:11;;;;;;;4.15;1.90;;;12.80;99.90;;;;;;7343038;19;109832;-74
2022/07/27 04:59:38;;;;;;;7.00;2.20;;;12.80;99.90;;;;;;7342186;19;112362;-73
2022/07/27 05:02:05;;;;;;;;;;;12.90;99.90;;;;;;7342522;19;109441;-74
2022/07/27 05:04:34;;;;;;;4.70;2.25;;;12.90;99.90;;;;;;7343318;19;109243;-74
2022/07/27 05:07:01;;;;;;;4.03;2.40;;;12.90;99.90;;;;;;7342396;19;111157;-74
2022/07/27 05:09:28;;;;;;;6.60;2.85;;;13.00;99.90;;;;;;7347330;19;109799;-73
2022/07/27 05:11:55;;;;;;;4.97;3.00;;;13.00;99.90;;;;;;7341506;19;110657;-74
2022/07/27 05:14:22;;;;;;;;;;;13.10;99.90;;;;;;7342930;19;109472;-74
2022/07/27 05:16:49;;;;;;;6.22;3.10;;;13.10;99.90;;;;;;7341832;19;110722;-74
2022/07/27 05:19:17;;;;;;;3.72;3.03;;;13.20;99.90;;;;;;7341874;19;114297;-74
2022/07/27 05:21:44;;;;;;;7.15;2.80;;;13.30;99.90;;;;;;7342663;19;110174;-74
2022/07/27 05:24:11;;;;;;;4.65;2.72;;;13.40;99.90;;;;;;7340234;19;110829;-74
2022/07/27 05:26:38;;;;;;;;;;;13.60;99.90;;;;;;7339459;19;114114;-74
2022/07/27 05:29:05;;;;;;;6.18;3.33;;;13.70;99.90;;;;;;7345815;19;109580;-74
2022/07/27 05:31:32;;;;;;;4.40;2.80;;;13.90;99.90;;;;;;7346925;19;110202;-74
2022/07/27 05:33:59;;;;;;;6.63;2.92;;;14.00;99.90;;;;;;7341853;19;109767;-75
2022/07/27 05:36:26;;;;;;;6.30;3.55;;;14.10;99.90;;;;;;7342191;19;109680;-74
2022/07/27 05:38:53;;;;;;;6.95;4.25;;;14.30;99.90;;;;;;7342260;19;112464;-75
2022/07/27 05:41:25;;;;;;;5.85;3.75;;;14.40;99.90;;;;;;7339781;19;110357;-74
2022/07/27 05:43:55;;;;;;;9.57;3.45;;;14.50;99.90;;;;;;7340497;19;110167;-74
2022/07/27 05:46:23;;;;;;;6.13;3.45;;;14.60;99.90;;;;;;7340111;19;111026;-74
2022/07/27 05:48:53;;;;;;;6.55;3.13;;;14.70;99.90;;;;;;7339151;19;109570;-75
2022/07/27 05:51:20;;;;;;;4.70;2.78;;;14.90;99.90;;;;;;7341678;19;110254;-75
2022/07/27 05:53:47;;;;;;;8.27;3.28;;;15.00;99.90;;;;;;7345991;19;110557;-75
2022/07/27 05:56:14;;;;;;;7.72;3.47;;;15.10;99.90;;;;;;7337830;19;112031;-79
2022/07/27 05:58:41;;;;;;;5.30;3.28;;;15.20;99.90;;;;;;7340166;19;110607;-77
2022/07/27 06:01:09;;;;;;;6.15;3.60;;;15.30;99.90;;;;;;7339827;19;109344;-78
2022/07/27 06:03:37;;;;;;;9.50;3.80;;;15.40;99.90;;;;;;7341634;19;110761;-76
2022/07/27 06:08:50;;;;;;;8.40;3.85;;;15.60;99.90;;;;;;7341338;19;109684;-77
2022/07/27 06:11:17;;;;;;;6.18;4.13;;;15.70;99.90;;;;;;7340261;19;110494;-76
2022/07/27 06:13:44;;;;;;;7.53;4.13;;;15.80;99.90;;;;;;7341009;19;110530;-77
2022/07/27 06:16:12;;;;;;;13.63;4.00;;;15.90;99.90;;;;;;7345267;19;110520;-76
2022/07/27 06:18:39;;;;;;;11.48;4.28;;;16.00;99.90;;;;;;7340493;19;110161;-76
2022/07/27 06:21:06;;;;;;;5.50;4.20;;;16.10;99.90;;;;;;7338363;19;109198;-77
2022/07/27 06:23:33;;;;;;;6.80;4.15;;;16.20;99.90;;;;;;7339811;19;110361;-76
2022/07/27 06:26:00;;;;;;;7.90;4.10;;;16.30;99.90;;;;;;7339654;19;111536;-77
2022/07/27 06:28:27;;;;;;;7.05;3.88;;;16.50;99.90;;;;;;7338247;19;110394;-76
2022/07/27 06:30:54;;;;;;;7.18;4.10;;;16.70;99.90;;;;;;7340669;19;110458;-76
2022/07/27 06:33:30;;;;;;;9.15;4.43;;;16.80;99.90;;;;;;7337618;19;111604;-76
2022/07/27 06:35:59;;;;;;;10.02;3.95;;;17.00;99.90;;;;;;7345458;19;112009;-76
2022/07/27 06:38:27;;;;;;;7.90;4.07;;;17.00;99.90;;;;;;7340837;19;111472;-77
2022/07/27 06:40:54;;;;;;;8.60;3.42;;;17.10;99.90;;;;;;7340714;19;109508;-77
2022/07/27 06:43:24;;;;;;;9.30;3.95;;;17.10;99.90;;;;;;7340298;19;110527;-76
2022/07/27 06:45:53;;;;;;;7.72;3.22;;;17.20;99.90;;;;;;7340610;19;111116;-75
2022/07/27 06:48:20;;;;;;;7.35;2.05;;;17.30;99.90;;;;;;7340170;19;109423;-76
2022/07/27 06:50:48;;;;;;;7.82;1.80;;;17.30;99.90;;;;;;7339731;19;109482;-76
2022/07/27 06:53:15;;;;;;;9.65;1.85;;;17.30;99.90;;;;;;7338259;19;110172;-77
2022/07/27 06:55:47;;;;;;;4.55;1.42;;;17.30;99.90;;;;;;7337798;19;109752;-76
2022/07/27 06:58:14;;;;;;;4.10;1.60;;;17.30;99.90;;;;;;7343248;19;112258;-76
2022/07/27 07:00:42;;;;;;;4.60;1.30;;;17.30;99.90;;;;;;7340327;19;109343;-76
2022/07/27 07:03:10;;;;;;;7.82;1.35;;;17.30;99.90;;;;;;7340150;19;110688;-76
2022/07/27 07:05:42;;;;;;;2.90;0.80;;;17.40;99.90;;;;;;7336753;19;110198;-76
2022/07/27 07:08:10;;;;;;;2.17;0.70;;;17.60;99.90;;;;;;7339654;19;111911;-77
2022/07/27 07:10:48;;;;;;;3.13;0.70;;;17.80;99.90;;;;;;7340458;19;110611;-76
2022/07/27 07:13:15;;;;;;;1.85;0.80;;;17.80;99.90;;;;;;7338813;19;111259;-75
2022/07/27 07:15:43;;;;;;;9.63;0.80;;;17.90;99.90;;;;;;7340496;19;109501;-77
2022/07/27 07:18:11;;;;;;;3.00;1.08;;;17.90;99.90;;;;;;7339865;19;110040;-77
2022/07/27 07:20:39;;;;;;;3.15;0.63;;;18.10;99.90;;;;;;7342583;19;110149;-76
2022/07/27 07:23:06;;;;;;;3.15;0.70;;;18.10;99.90;;;;;;7340047;19;111518;-78
2022/07/27 07:25:34;;;;;;;1.88;0.60;;;18.20;99.90;;;;;;7336012;19;110280;-75
2022/07/27 07:28:02;;;;;;;5.82;0.80;;;18.40;99.90;;;;;;7336240;19;109498;-75
2022/07/27 07:30:30;;;;;;;4.65;0.70;;;18.60;99.90;;;;;;7339150;19;111602;-76
2022/07/27 07:32:57;;;;;;;5.15;0.80;;;18.70;99.90;;;;;;7338043;19;109939;-75
2022/07/27 07:35:24;;;;;;;2.53;0.85;;;18.70;99.90;;;;;;7338592;19;109948;-78
2022/07/27 07:37:51;;;;;;;2.50;0.85;;;18.80;99.90;;;;;;7339230;19;110818;-75
2022/07/27 07:40:20;;;;;;;2.25;1.05;;;18.50;99.90;;;;;;7337611;19;110132;-76
2022/07/27 07:43:07;;;;;;;7.65;1.65;;;18.30;99.90;;;;;;7343800;19;109681;-76
2022/07/27 07:45:36;;;;;;;5.18;0.95;;;18.30;99.90;;;;;;7336299;19;110212;-76
2022/07/27 07:48:17;;;;;;;3.88;1.10;;;18.20;99.90;;;;;;7338269;19;109611;-76
2022/07/27 07:50:44;;;;;;;10.50;2.03;;;18.30;99.90;;;;;;7338425;19;110973;-77
2022/07/27 07:53:13;;;;;;;4.53;0.98;;;18.40;99.90;;;;;;7335243;19;110844;-76
2022/07/27 07:55:41;;;;;;;8.63;0.90;;;18.40;99.90;;;;;;7337863;19;111318;-76
2022/07/27 07:58:08;;;;;;;9.43;1.10;;;18.30;99.90;;;;;;7336663;19;110725;-76
2022/07/27 08:00:35;;;;;;;3.95;0.90;;;18.20;99.90;;;;;;7337852;19;110440;-76
2022/07/27 08:03:02;;;;;;;2.63;0.70;;;18.20;99.90;;;;;;7336827;19;110128;-75
2022/07/27 08:05:31;;;;;;;3.67;0.60;;;18.30;99.90;;;;;;7339614;19;109502;-76
2022/07/27 08:07:58;;;;;;;3.45;0.80;;;18.30;99.90;;;;;;7338057;19;109830;-76
2022/07/27 08:10:26;;;;;;;3.50;0.60;;;18.30;99.90;;;;;;7338186;19;109714;-75
2022/07/27 08:12:55;;;;;;;4.20;0.77;;;18.20;99.90;;;;;;7336540;19;112257;-76
2022/07/27 08:15:23;;;;;;;3.60;0.68;;;18.30;99.90;;;;;;7338253;19;109202;-76
2022/07/27 08:18:03;;;;;;;4.38;0.60;;;18.40;99.90;;;;;;7337361;19;111220;-76
2022/07/27 08:20:30;;;;;;;3.72;0.55;;;18.60;99.90;;;;;;7336907;19;111149;-77
2022/07/27 08:22:57;;;;;;;2.22;0.70;;;18.80;99.90;;;;;;7337872;19;109554;-76
2022/07/27 08:25:24;;;;;;;1.67;0.50;;;18.90;99.90;;;;;;7347290;19;111517;-77
2022/07/27 08:27:51;;;;;;;3.80;0.57;;;19.00;99.90;;;;;;7341496;19;109340;-77
2022/07/27 08:30:22;;;;;;;4.35;0.75;;;19.30;99.90;;;;;;7342800;19;110058;-76
2022/07/27 08:32:57;;;;;;;2.72;0.52;;;19.50;99.60;;;;;;7343462;19;110060;-77
2022/07/27 08:35:25;;;;;;;2.20;0.50;;;19.60;99.50;;;;;;7344515;19;109484;-78
2022/07/27 08:37:53;;;;;;;3.20;0.57;;;19.70;99.20;;;;;;7343646;19;110750;-77
2022/07/27 08:40:21;;;;;;;1.00;0.45;;;19.80;98.50;;;;;;7341836;19;111286;-77
2022/07/27 08:43:08;;;;;;;1.50;0.47;;;19.90;98.20;;;;;;7344696;19;109654;-79
2022/07/27 08:45:36;;;;;;;4.30;0.60;;;20.00;98.20;;;;;;7342082;19;109492;-79
2022/07/27 08:48:04;;;;;;;3.13;0.50;;;20.10;98.30;;;;;;7348582;19;110244;-78
2022/07/27 08:50:33;;;;;;;1.33;0.50;;;20.20;97.20;;;;;;7343059;19;110768;-78
2022/07/27 08:53:08;;;;;;;2.13;0.57;;;20.20;97.50;;;;;;7344015;19;111801;-78
2022/07/27 08:55:39;;;;;;;4.63;0.60;;;20.20;97.00;;;;;;7344432;19;109607;-77
2022/07/27 08:58:07;;;;;;;3.33;0.50;;;20.30;97.20;;;;;;7343729;19;109881;-78
2022/07/27 09:00:37;;;;;;;2.13;0.50;;;20.40;97.10;;;;;;7342102;19;111338;-80
2022/07/27 09:03:04;;;;;;;2.08;0.50;;;20.50;97.60;;;;;;7343075;19;109480;-79
2022/07/27 09:05:32;;;;;;;3.75;0.50;;;20.70;96.90;;;;;;7341068;19;109874;-78
2022/07/27 09:08:12;;;;;;;3.70;0.52;;;20.80;96.90;;;;;;7342354;19;110062;-79
2022/07/27 09:10:39;;;;;;;3.13;0.70;;;20.80;96.70;;;;;;7346354;19;109578;-80
2022/07/27 09:13:27;;;;;;;1.38;0.60;;;20.80;96.60;;;;;;7342733;19;111210;-80
2022/07/27 09:16:00;;;;;;;5.40;0.63;;;20.70;96.20;;;;;;7341226;19;109903;-80
2022/07/27 09:18:47;;;;;;;5.30;1.15;;;20.50;96.90;;;;;;7339039;19;110583;-80
2022/07/27 09:21:18;;;;;;;2.45;0.70;;;20.60;97.10;;;;;;7342469;19;110139;-81
2022/07/27 09:23:53;;;;;;;2.30;0.60;;;20.60;97.10;;;;;;7343353;19;109619;-80
2022/07/27 09:26:28;;;;;;;5.60;0.90;;;20.50;97.00;;;;;;7339755;19;109993;-79
2022/07/27 09:29:08;;;;;;;3.70;0.57;;;20.50;97.10;;;;;;7342916;19;111114;-79
2022/07/27 09:31:48;;;;;;;3.10;0.80;;;20.50;97.00;;;;;;7342623;19;109667;-80
2022/07/27 09:34:45;;;;;;;4.45;0.60;;;20.40;96.90;;;;;;7344678;19;111030;-79
2022/07/27 09:37:25;;;;;;;5.72;0.90;;;20.40;96.20;;;;;;7340226;19;109373;-80
2022/07/27 09:40:15;;;;;;;2.97;0.60;;;20.40;96.40;;;;;;7342553;19;110813;-79
2022/07/27 09:43:09;;;;;;;6.63;0.70;;;20.50;96.20;;;;;;7343205;19;111137;-79
2022/07/27 09:46:05;;;;;;;2.00;0.50;;;20.60;96.60;;;;;;7339494;19;109411;-79
2022/07/27 09:48:34;;;;;;;2.53;0.50;;;20.70;96.20;;;;;;7341076;19;113859;-81
2022/07/27 09:51:05;;;;;;;1.45;0.50;;;20.90;96.00;;;;;;7341484;19;112150;-81
2022/07/27 09:53:53;;;;;;;2.88;0.63;;;21.00;95.80;;;;;;7342839;19;109842;-79
2022/07/27 09:56:26;;;;;;;3.95;0.70;;;21.10;95.80;;;;;;7340551;19;110479;-78
2022/07/27 09:58:55;;;;;;;3.97;0.65;;;21.10;95.70;;;;;;7345255;19;110267;-79
2022/07/27 10:01:25;;;;;;;2.42;0.60;;;21.00;95.30;;;;;;7340814;19;111707;-79
2022/07/27 10:03:55;;;;;;;3.95;0.80;;;20.90;95.80;;;;;;7340805;19;110425;-81
2022/07/27 10:06:24;;;;;;;3.05;0.60;;;20.90;96.20;;;;;;7339088;19;109181;-80
2022/07/27 10:08:53;;;;;;;6.45;1.00;;;21.30;96.80;;;;;;7338075;19;110371;-80
2022/07/27 10:11:22;;;;;;;2.22;0.60;;;21.40;94.90;;;;;;7340427;19;110730;-79
2022/07/27 10:13:50;;;;;;;4.57;0.77;;;21.30;94.80;;;;;;7341496;19;109621;-79
2022/07/27 10:16:19;;;;;;;3.63;0.93;;;21.20;94.70;;;;;;7341029;19;109447;-80
2022/07/27 10:19:04;;;;;;;4.95;0.90;;;21.10;95.40;;;;;;7340483;19;111921;-79
2022/07/27 10:21:37;;;;;;;7.15;0.90;;;21.00;94.80;;;;;;7347286;19;109154;-79
2022/07/27 10:24:09;;;;;;;5.72;0.70;;;20.90;95.30;;;;;;7340791;19;112039;-79
2022/07/27 10:26:42;;;;;;;3.05;0.80;;;20.90;95.60;;;;;;7338217;19;109667;-80
2022/07/27 10:29:12;;;;;;;8.27;0.80;;;21.00;95.60;;;;;;7340574;19;111181;-80
2022/07/27 10:31:54;;;;;;;4.97;0.70;;;21.20;95.80;;;;;;7339290;19;110164;-78
2022/07/27 10:34:41;;;;;;;4.75;0.75;;;21.50;96.00;;;;;;7339444;19;109236;-79
2022/07/27 10:37:17;;;;;;;3.17;0.80;;;21.70;94.80;;;;;;7340321;19;110501;-84
2022/07/27 10:39:49;;;;;;;3.05;0.75;;;21.90;95.00;;;;;;7338235;19;111073;-81
2022/07/27 10:42:28;;;;;;;3.42;0.95;;;22.00;94.30;;;;;;7346101;19;109563;-80
2022/07/27 10:45:04;;;;;;;2.45;0.80;;;22.00;95.10;;;;;;7340408;19;111213;-80
2022/07/27 10:47:35;;;;;;;6.13;0.90;;;22.20;94.70;;;;;;7338986;19;109890;-80
2022/07/27 10:50:18;;;;;;;5.20;0.82;;;22.40;94.80;;;;;;7339632;19;112147;-79
2022/07/27 10:52:50;;;;;;;3.17;0.90;;;22.50;93.30;;;;;;7338994;19;110093;-79
2022/07/27 10:55:29;;;;;;;3.63;0.80;;;22.50;93.30;;;;;;7338434;19;109229;-81
2022/07/27 10:58:28;;;;;;;4.75;0.90;;;22.40;94.00;;;;;;7337363;19;111311;-81
2022/07/27 11:00:58;;;;;;;3.33;1.13;;;22.20;93.60;;;;;;7338579;19;111843;-81
2022/07/27 11:03:32;;;;;;;5.55;1.02;;;22.00;94.20;;;;;;7338111;19;109310;-80
2022/07/27 11:06:02;;;;;;;3.03;0.80;;;22.20;94.30;;;;;;7342403;19;110558;-81
2022/07/27 11:08:51;;;;;;;3.60;0.90;;;22.30;94.40;;;;;;7339609;19;109573;-81
2022/07/27 11:11:38;;;;;;;2.42;0.90;;;22.30;94.10;;;;;;7333560;19;112663;-79
2022/07/27 11:14:05;;;;;;;1.63;0.70;;;22.30;93.50;;;;;;7339804;19;111147;-79
2022/07/27 11:16:32;;;;;;;3.95;0.77;;;22.20;92.10;;;;;;7337962;19;110277;-80
2022/07/27 11:19:22;;;;;;;4.93;1.05;;;22.20;92.50;;;;;;7338953;19;112503;-80
2022/07/27 11:21:51;;;;;;;7.15;1.10;;;22.30;93.20;;;;;;7337948;19;110102;-81
2022/07/27 11:24:18;;;;;;;3.08;0.88;;;22.50;93.60;;;;;;7338808;19;109492;-80
2022/07/27 11:26:48;;;;;;;1.42;0.73;;;22.80;93.60;;;;;;7336568;19;109602;-81
2022/07/27 11:29:18;;;;;;;3.05;1.00;;;23.00;93.10;;;;;;7342263;19;111616;-79
2022/07/27 11:31:46;;;;;;;3.22;1.00;;;23.00;92.80;;;;;;7338799;19;110017;-79
2022/07/27 11:34:28;;;;;;;2.53;0.80;;;23.00;92.80;;;;;;7337700;19;110391;-80
2022/07/27 11:36:57;;;;;;;3.22;0.90;;;22.90;91.80;;;;;;7338216;19;109546;-80
2022/07/27 11:39:26;;;;;;;3.50;0.88;;;22.90;92.20;;;;;;7338654;19;110269;-82
2022/07/27 11:42:17;;;;;;;4.72;0.88;;;22.90;91.80;;;;;;7337796;19;112082;-82
2022/07/27 11:44:47;;;;;;;2.60;1.00;;;23.10;92.80;;;;;;7338332;19;109364;-81
2022/07/27 11:47:19;;;;;;;2.25;0.73;;;23.00;91.10;;;;;;7335335;19;109377;-82
2022/07/27 11:49:47;;;;;;;4.05;0.75;;;22.90;91.30;;;;;;7335064;19;110112;-79
2022/07/27 11:52:17;;;;;;;2.60;0.88;;;22.90;91.20;;;;;;7343132;19;110622;-81
2022/07/27 11:54:50;;;;;;;3.78;0.60;;;22.90;90.30;;;;;;7336949;19;111160;-80
2022/07/27 11:57:19;;;;;;;2.85;0.70;;;22.80;88.90;;;;;;7336842;19;109289;-80
2022/07/27 11:59:46;;;;;;;4.63;0.57;;;22.90;90.30;;;;;;7342529;19;110547;-81
2022/07/27 12:02:18;;;;;;;1.73;0.40;;;22.90;89.30;;;;;;7344585;19;110990;-81
2022/07/27 12:04:48;;;;;;;2.72;0.50;;;23.20;88.20;;;;;;7344808;19;109888;-80
2022/07/27 12:07:28;;;;;;;2.75;0.65;;;23.30;87.20;;;;;;7342542;19;110284;-80
2022/07/27 12:09:58;;;;;;;2.85;0.70;;;23.20;84.90;;;;;;7344254;19;110109;-81
2022/07/27 12:12:35;;;;;;;3.47;0.50;;;22.90;84.60;;;;;;7345128;19;109676;-80
2022/07/27 12:15:17;;;;;;;1.92;0.57;;;22.80;86.30;;;;;;7348737;19;109515;-80
2022/07/27 12:18:05;;;;;;;2.90;0.68;;;23.10;88.60;;;;;;7343636;19;109377;-81
2022/07/27 12:20:33;;;;;;;1.95;0.52;;;23.40;85.60;;;;;;7343639;19;110432;-79
2022/07/27 12:23:07;;;;;;;3.88;0.80;;;23.50;86.50;;;;;;7342524;19;111248;-81
2022/07/27 12:25:35;;;;;;;3.50;0.68;;;23.60;86.80;;;;;;7343168;19;109345;-78
2022/07/27 12:28:16;;;;;;;2.33;0.50;;;23.70;84.20;;;;;;7340670;19;110491;-77
2022/07/27 12:30:48;;;;;;;2.65;0.63;;;23.60;84.60;;;;;;7337161;19;110177;-77
2022/07/27 12:33:30;;;;;;;2.88;0.60;;;23.70;85.10;;;;;;7339501;19;109647;-77
2022/07/27 12:35:58;;;;;;;2.40;0.68;;;23.90;84.60;;;;;;7342332;19;110135;-77
2022/07/27 12:38:47;;;;;;;5.25;0.55;;;24.10;84.20;;;;;;7348112;19;110235;-76
2022/07/27 12:41:34;;;;;;;3.75;0.70;;;24.00;84.70;;;;;;7341292;19;110381;-77
2022/07/27 12:44:15;;;;;;;3.20;0.73;;;24.10;85.40;;;;;;7342619;19;111591;-77
2022/07/27 12:46:53;;;;;;;6.20;0.70;;;24.30;85.50;;;;;;7341701;19;110727;-77
2022/07/27 12:49:24;;;;;;;1.42;0.50;;;24.30;83.90;;;;;;7341595;19;110061;-76
2022/07/27 12:51:51;;;;;;;1.80;0.60;;;24.40;83.90;;;;;;7343035;19;111212;-78
2022/07/27 12:54:18;;;;;;;2.28;0.68;;;24.40;83.90;;;;;;7343265;19;110105;-79
2022/07/27 12:56:47;;;;;;;5.45;0.70;;;24.50;83.00;;;;;;7342934;19;110407;-77
2022/07/27 12:59:16;;;;;;;1.85;0.68;;;24.40;81.10;;;;;;7348061;19;111276;-78